sensor_id;sensor_type;location;lat;lon;timestamp;temperature;humidity
1476;DHT22;730;48.870;12.542;2023-11-21T00:00:22;8.70;1.00
1476;DHT22;730;48.870;12.542;2023-11-21T00:02:48;8.70;1.00
1476;DHT22;730;48.870;12.542;2023-11-21T00:05:15;8.80;1.00
1476;DHT22;730;48.870;12.542;2023-11-21T00:07:43;8.80;1.00
1476;DHT22;730;48.870;12.542;2023-11-21T00:10:11;8.90;1.00
1476;DHT22;730;48.870;12.542;2023-11-21T00:12:37;8.90;1.00
1476;DHT22;730;48.870;12.542;2023-11-21T00:15:04;9.00;1.00
1476;DHT22;730;48.870;12.542;2023-11-21T00:17:39;9.00;1.00
1476;DHT22;730;48.870;12.542;2023-11-21T00:20:06;9.00;1.00
1476;DHT22;730;48.870;12.542;2023-11-21T00:22:36;9.00;1.00
1476;DHT22;730;48.870;12.542;2023-11-21T00:25:03;9.00;1.00
1476;DHT22;730;48.870;12.542;2023-11-21T00:27:30;9.00;1.00
1476;DHT22;730;48.870;12.542;2023-11-21T00:29:56;9.00;1.00
1476;DHT22;730;48.870;12.542;2023-11-21T00:32:22;9.00;1.00
1476;DHT22;730;48.870;12.542;2023-11-21T00:34:48;9.00;1.00
1476;DHT22;730;48.870;12.542;2023-11-21T00:37:14;9.00;1.00
1476;DHT22;730;48.870;12.542;2023-11-21T00:39:40;9.00;1.00
1476;DHT22;730;48.870;12.542;2023-11-21T00:42:07;9.00;1.00
1476;DHT22;730;48.870;12.542;2023-11-21T00:44:34;9.00;1.00
1476;DHT22;730;48.870;12.542;2023-11-21T00:47:03;8.90;1.00
1476;DHT22;730;48.870;12.542;2023-11-21T00:49:29;8.90;1.00
1476;DHT22;730;48.870;12.542;2023-11-21T00:51:55;8.90;1.00
1476;DHT22;730;48.870;12.542;2023-11-21T00:54:21;8.90;1.00
1476;DHT22;730;48.870;12.542;2023-11-21T00:56:47;8.80;1.00
1476;DHT22;730;48.870;12.542;2023-11-21T00:59:13;8.80;1.00
1476;DHT22;730;48.870;12.542;2023-11-21T01:01:40;8.90;1.00
1476;DHT22;730;48.870;12.542;2023-11-21T01:04:06;8.90;1.00
1476;DHT22;730;48.870;12.542;2023-11-21T01:06:35;8.90;1.00
1476;DHT22;730;48.870;12.542;2023-11-21T01:09:02;8.90;1.00
1476;DHT22;730;48.870;12.542;2023-11-21T01:11:34;8.90;1.00
1476;DHT22;730;48.870;12.542;2023-11-21T01:14:03;8.90;1.00
1476;DHT22;730;48.870;12.542;2023-11-21T01:16:31;8.90;1.00
1476;DHT22;730;48.870;12.542;2023-11-21T01:18:59;8.90;1.00
1476;DHT22;730;48.870;12.542;2023-11-21T01:21:26;8.90;1.00
1476;DHT22;730;48.870;12.542;2023-11-21T01:23:52;8.90;1.00
1476;DHT22;730;48.870;12.542;2023-11-21T01:26:18;8.80;1.00
1476;DHT22;730;48.870;12.542;2023-11-21T01:28:44;8.80;1.00
1476;DHT22;730;48.870;12.542;2023-11-21T01:31:10;8.80;1.00
1476;DHT22;730;48.870;12.542;2023-11-21T01:33:36;8.70;1.00
1476;DHT22;730;48.870;12.542;2023-11-21T01:36:02;8.70;1.00
1476;DHT22;730;48.870;12.542;2023-11-21T01:38:28;8.70;1.00
1476;DHT22;730;48.870;12.542;2023-11-21T01:40:54;8.70;1.00
1476;DHT22;730;48.870;12.542;2023-11-21T01:43:20;8.70;1.00
1476;DHT22;730;48.870;12.542;2023-11-21T01:45:47;8.70;1.00
1476;DHT22;730;48.870;12.542;2023-11-21T01:48:13;8.70;1.00
1476;DHT22;730;48.870;12.542;2023-11-21T01:50:40;8.70;1.00
1476;DHT22;730;48.870;12.542;2023-11-21T01:53:06;8.70;1.00
1476;DHT22;730;48.870;12.542;2023-11-21T01:55:33;8.70;1.00
1476;DHT22;730;48.870;12.542;2023-11-21T01:57:59;8.70;1.00
1476;DHT22;730;48.870;12.542;2023-11-21T02:00:26;8.80;1.00
1476;DHT22;730;48.870;12.542;2023-11-21T02:02:53;8.70;1.00
1476;DHT22;730;48.870;12.542;2023-11-21T02:05:20;8.80;1.00
1476;DHT22;730;48.870;12.542;2023-11-21T02:07:47;8.80;1.00
1476;DHT22;730;48.870;12.542;2023-11-21T02:10:14;8.80;1.00
1476;DHT22;730;48.870;12.542;2023-11-21T02:12:41;8.80;1.00
1476;DHT22;730;48.870;12.542;2023-11-21T02:15:09;8.80;1.00
1476;DHT22;730;48.870;12.542;2023-11-21T02:17:43;8.80;1.00
1476;DHT22;730;48.870;12.542;2023-11-21T02:20:13;8.80;1.00
1476;DHT22;730;48.870;12.542;2023-11-21T02:22:51;8.90;1.00
1476;DHT22;730;48.870;12.542;2023-11-21T02:25:31;8.90;1.00
1476;DHT22;730;48.870;12.542;2023-11-21T02:28:01;8.90;1.00
1476;DHT22;730;48.870;12.542;2023-11-21T02:30:28;8.90;1.00
1476;DHT22;730;48.870;12.542;2023-11-21T02:32:54;8.90;1.00
1476;DHT22;730;48.870;12.542;2023-11-21T02:35:22;8.90;1.00
1476;DHT22;730;48.870;12.542;2023-11-21T02:37:49;9.00;1.00
1476;DHT22;730;48.870;12.542;2023-11-21T02:40:16;9.00;1.00
1476;DHT22;730;48.870;12.542;2023-11-21T02:42:46;9.00;1.00
1476;DHT22;730;48.870;12.542;2023-11-21T02:45:20;9.00;1.00
1476;DHT22;730;48.870;12.542;2023-11-21T02:47:50;9.00;1.00
1476;DHT22;730;48.870;12.542;2023-11-21T02:50:16;9.00;1.00
1476;DHT22;730;48.870;12.542;2023-11-21T02:52:44;9.00;1.00
1476;DHT22;730;48.870;12.542;2023-11-21T02:55:10;9.00;1.00
1476;DHT22;730;48.870;12.542;2023-11-21T02:57:36;9.00;1.00
1476;DHT22;730;48.870;12.542;2023-11-21T03:00:03;9.00;1.00
1476;DHT22;730;48.870;12.542;2023-11-21T03:02:29;9.00;1.00
1476;DHT22;730;48.870;12.542;2023-11-21T03:04:55;9.00;1.00
1476;DHT22;730;48.870;12.542;2023-11-21T03:07:21;9.00;1.00
1476;DHT22;730;48.870;12.542;2023-11-21T03:09:47;9.00;1.00
1476;DHT22;730;48.870;12.542;2023-11-21T03:12:13;9.00;1.00
1476;DHT22;730;48.870;12.542;2023-11-21T03:14:40;9.00;1.00
1476;DHT22;730;48.870;12.542;2023-11-21T03:17:06;9.00;1.00
1476;DHT22;730;48.870;12.542;2023-11-21T03:19:32;9.00;1.00
1476;DHT22;730;48.870;12.542;2023-11-21T03:21:58;9.00;1.00
1476;DHT22;730;48.870;12.542;2023-11-21T03:24:25;9.00;1.00
1476;DHT22;730;48.870;12.542;2023-11-21T03:26:52;9.00;1.00
1476;DHT22;730;48.870;12.542;2023-11-21T03:29:18;9.00;1.00
1476;DHT22;730;48.870;12.542;2023-11-21T03:31:44;9.00;1.00
1476;DHT22;730;48.870;12.542;2023-11-21T03:34:16;9.00;1.00
1476;DHT22;730;48.870;12.542;2023-11-21T03:36:43;8.90;1.00
1476;DHT22;730;48.870;12.542;2023-11-21T03:39:09;8.90;1.00
1476;DHT22;730;48.870;12.542;2023-11-21T03:41:35;8.90;1.00
1476;DHT22;730;48.870;12.542;2023-11-21T03:44:01;8.90;1.00
1476;DHT22;730;48.870;12.542;2023-11-21T03:46:28;8.90;1.00
1476;DHT22;730;48.870;12.542;2023-11-21T03:48:54;8.90;1.00
1476;DHT22;730;48.870;12.542;2023-11-21T03:51:21;8.90;1.00
1476;DHT22;730;48.870;12.542;2023-11-21T03:53:48;8.90;1.00
1476;DHT22;730;48.870;12.542;2023-11-21T03:56:14;8.90;1.00
1476;DHT22;730;48.870;12.542;2023-11-21T03:58:40;8.90;1.00
1476;DHT22;730;48.870;12.542;2023-11-21T04:01:06;8.90;1.00
1476;DHT22;730;48.870;12.542;2023-11-21T04:03:32;8.90;1.00
1476;DHT22;730;48.870;12.542;2023-11-21T04:05:58;8.90;1.00
1476;DHT22;730;48.870;12.542;2023-11-21T04:08:24;8.80;1.00
1476;DHT22;730;48.870;12.542;2023-11-21T04:10:51;8.80;1.00
1476;DHT22;730;48.870;12.542;2023-11-21T04:13:19;8.80;1.00
1476;DHT22;730;48.870;12.542;2023-11-21T04:15:45;8.80;1.00
1476;DHT22;730;48.870;12.542;2023-11-21T04:18:11;8.70;1.00
1476;DHT22;730;48.870;12.542;2023-11-21T04:20:37;8.70;1.00
1476;DHT22;730;48.870;12.542;2023-11-21T04:23:03;8.70;1.00
1476;DHT22;730;48.870;12.542;2023-11-21T04:25:29;8.60;1.00
1476;DHT22;730;48.870;12.542;2023-11-21T04:27:55;8.60;1.00
1476;DHT22;730;48.870;12.542;2023-11-21T04:30:21;8.60;1.00
1476;DHT22;730;48.870;12.542;2023-11-21T04:32:47;8.60;1.00
1476;DHT22;730;48.870;12.542;2023-11-21T04:35:13;8.60;1.00
1476;DHT22;730;48.870;12.542;2023-11-21T04:37:41;8.60;1.00
1476;DHT22;730;48.870;12.542;2023-11-21T04:40:07;8.60;1.00
1476;DHT22;730;48.870;12.542;2023-11-21T04:42:35;8.60;1.00
1476;DHT22;730;48.870;12.542;2023-11-21T04:45:03;8.60;1.00
1476;DHT22;730;48.870;12.542;2023-11-21T04:47:33;8.60;1.00
1476;DHT22;730;48.870;12.542;2023-11-21T04:49:59;8.60;1.00
1476;DHT22;730;48.870;12.542;2023-11-21T04:52:25;8.60;1.00
1476;DHT22;730;48.870;12.542;2023-11-21T04:54:51;8.60;1.00
1476;DHT22;730;48.870;12.542;2023-11-21T04:57:17;8.60;1.00
1476;DHT22;730;48.870;12.542;2023-11-21T04:59:44;8.60;1.00
1476;DHT22;730;48.870;12.542;2023-11-21T05:02:10;8.70;1.00
1476;DHT22;730;48.870;12.542;2023-11-21T05:04:38;8.60;1.00
1476;DHT22;730;48.870;12.542;2023-11-21T05:07:04;8.60;1.00
1476;DHT22;730;48.870;12.542;2023-11-21T05:09:30;8.60;1.00
1476;DHT22;730;48.870;12.542;2023-11-21T05:11:58;8.70;1.00
1476;DHT22;730;48.870;12.542;2023-11-21T05:14:24;8.70;1.00
1476;DHT22;730;48.870;12.542;2023-11-21T05:16:50;8.70;1.00
1476;DHT22;730;48.870;12.542;2023-11-21T05:19:17;8.70;1.00
1476;DHT22;730;48.870;12.542;2023-11-21T05:21:43;8.70;1.00
1476;DHT22;730;48.870;12.542;2023-11-21T05:24:09;8.70;1.00
1476;DHT22;730;48.870;12.542;2023-11-21T05:26:36;8.70;1.00
1476;DHT22;730;48.870;12.542;2023-11-21T05:29:02;8.70;1.00
1476;DHT22;730;48.870;12.542;2023-11-21T05:31:28;8.70;1.00
1476;DHT22;730;48.870;12.542;2023-11-21T05:33:54;8.70;1.00
1476;DHT22;730;48.870;12.542;2023-11-21T05:36:21;8.70;1.00
1476;DHT22;730;48.870;12.542;2023-11-21T05:38:48;8.70;1.00
1476;DHT22;730;48.870;12.542;2023-11-21T05:41:14;8.70;1.00
1476;DHT22;730;48.870;12.542;2023-11-21T05:43:40;8.70;1.00
1476;DHT22;730;48.870;12.542;2023-11-21T05:46:06;8.70;1.00
1476;DHT22;730;48.870;12.542;2023-11-21T05:48:43;8.70;1.00
1476;DHT22;730;48.870;12.542;2023-11-21T05:51:09;8.70;1.00
1476;DHT22;730;48.870;12.542;2023-11-21T05:53:42;8.60;1.00
1476;DHT22;730;48.870;12.542;2023-11-21T05:56:08;8.60;1.00
1476;DHT22;730;48.870;12.542;2023-11-21T05:58:34;8.60;1.00
1476;DHT22;730;48.870;12.542;2023-11-21T06:01:00;8.60;1.00
1476;DHT22;730;48.870;12.542;2023-11-21T06:03:26;8.60;1.00
1476;DHT22;730;48.870;12.542;2023-11-21T06:05:53;8.60;1.00
1476;DHT22;730;48.870;12.542;2023-11-21T06:08:19;8.60;1.00
1476;DHT22;730;48.870;12.542;2023-11-21T06:10:45;8.60;1.00
1476;DHT22;730;48.870;12.542;2023-11-21T06:13:14;8.70;1.00
1476;DHT22;730;48.870;12.542;2023-11-21T06:15:41;8.70;1.00
1476;DHT22;730;48.870;12.542;2023-11-21T06:18:07;8.70;1.00
1476;DHT22;730;48.870;12.542;2023-11-21T06:20:36;8.70;1.00
1476;DHT22;730;48.870;12.542;2023-11-21T06:23:03;8.70;1.00
1476;DHT22;730;48.870;12.542;2023-11-21T06:25:39;8.70;1.00
1476;DHT22;730;48.870;12.542;2023-11-21T06:28:06;8.70;1.00
1476;DHT22;730;48.870;12.542;2023-11-21T06:30:32;8.70;1.00
1476;DHT22;730;48.870;12.542;2023-11-21T06:32:58;8.70;1.00
1476;DHT22;730;48.870;12.542;2023-11-21T06:35:25;8.70;1.00
1476;DHT22;730;48.870;12.542;2023-11-21T06:37:53;8.70;1.00
1476;DHT22;730;48.870;12.542;2023-11-21T06:40:19;8.70;1.00
1476;DHT22;730;48.870;12.542;2023-11-21T06:42:45;8.80;1.00
1476;DHT22;730;48.870;12.542;2023-11-21T06:45:12;8.70;1.00
1476;DHT22;730;48.870;12.542;2023-11-21T06:47:39;8.80;1.00
1476;DHT22;730;48.870;12.542;2023-11-21T06:50:05;8.80;1.00
1476;DHT22;730;48.870;12.542;2023-11-21T06:52:35;8.70;1.00
1476;DHT22;730;48.870;12.542;2023-11-21T06:55:01;8.80;1.00
1476;DHT22;730;48.870;12.542;2023-11-21T06:57:27;8.80;1.00
1476;DHT22;730;48.870;12.542;2023-11-21T06:59:53;8.80;1.00
1476;DHT22;730;48.870;12.542;2023-11-21T07:02:19;8.80;1.00
1476;DHT22;730;48.870;12.542;2023-11-21T07:04:45;8.90;1.00
1476;DHT22;730;48.870;12.542;2023-11-21T07:07:12;8.90;1.00
1476;DHT22;730;48.870;12.542;2023-11-21T07:09:38;8.90;1.00
1476;DHT22;730;48.870;12.542;2023-11-21T07:12:05;8.90;1.00
1476;DHT22;730;48.870;12.542;2023-11-21T07:14:34;8.90;1.00
1476;DHT22;730;48.870;12.542;2023-11-21T07:17:00;8.90;1.00
1476;DHT22;730;48.870;12.542;2023-11-21T07:19:26;8.90;1.00
1476;DHT22;730;48.870;12.542;2023-11-21T07:21:52;8.90;1.00
1476;DHT22;730;48.870;12.542;2023-11-21T07:24:18;9.00;1.00
1476;DHT22;730;48.870;12.542;2023-11-21T07:26:44;9.00;1.00
1476;DHT22;730;48.870;12.542;2023-11-21T07:29:10;9.00;1.00
1476;DHT22;730;48.870;12.542;2023-11-21T07:31:37;9.00;1.00
1476;DHT22;730;48.870;12.542;2023-11-21T07:34:04;9.00;1.00
1476;DHT22;730;48.870;12.542;2023-11-21T07:36:30;9.00;1.00
1476;DHT22;730;48.870;12.542;2023-11-21T07:38:56;9.00;1.00
1476;DHT22;730;48.870;12.542;2023-11-21T07:41:22;9.00;1.00
1476;DHT22;730;48.870;12.542;2023-11-21T07:43:48;9.00;1.00
1476;DHT22;730;48.870;12.542;2023-11-21T07:46:14;9.00;1.00
1476;DHT22;730;48.870;12.542;2023-11-21T07:48:42;9.00;1.00
1476;DHT22;730;48.870;12.542;2023-11-21T07:51:09;9.10;1.00
1476;DHT22;730;48.870;12.542;2023-11-21T07:53:36;9.10;1.00
1476;DHT22;730;48.870;12.542;2023-11-21T07:56:09;9.10;1.00
1476;DHT22;730;48.870;12.542;2023-11-21T07:58:35;9.10;1.00
1476;DHT22;730;48.870;12.542;2023-11-21T08:01:03;9.10;1.00
1476;DHT22;730;48.870;12.542;2023-11-21T08:03:30;9.10;1.00
1476;DHT22;730;48.870;12.542;2023-11-21T08:05:58;9.10;1.00
1476;DHT22;730;48.870;12.542;2023-11-21T08:08:24;9.10;1.00
1476;DHT22;730;48.870;12.542;2023-11-21T08:10:50;9.10;1.00
1476;DHT22;730;48.870;12.542;2023-11-21T08:13:28;9.10;1.00
1476;DHT22;730;48.870;12.542;2023-11-21T08:15:57;9.10;1.00
1476;DHT22;730;48.870;12.542;2023-11-21T08:18:29;9.10;1.00
1476;DHT22;730;48.870;12.542;2023-11-21T08:20:56;9.20;1.00
1476;DHT22;730;48.870;12.542;2023-11-21T08:23:22;9.20;1.00
1476;DHT22;730;48.870;12.542;2023-11-21T08:25:52;9.20;1.00
1476;DHT22;730;48.870;12.542;2023-11-21T08:28:19;9.20;1.00
1476;DHT22;730;48.870;12.542;2023-11-21T08:30:48;9.30;1.00
1476;DHT22;730;48.870;12.542;2023-11-21T08:33:14;9.30;1.00
1476;DHT22;730;48.870;12.542;2023-11-21T08:35:40;9.30;1.00
1476;DHT22;730;48.870;12.542;2023-11-21T08:38:06;9.30;1.00
1476;DHT22;730;48.870;12.542;2023-11-21T08:40:32;9.40;1.00
1476;DHT22;730;48.870;12.542;2023-11-21T08:42:58;9.30;1.00
1476;DHT22;730;48.870;12.542;2023-11-21T08:45:25;9.40;1.00
1476;DHT22;730;48.870;12.542;2023-11-21T08:47:51;9.40;1.00
1476;DHT22;730;48.870;12.542;2023-11-21T08:50:17;9.40;1.00
1476;DHT22;730;48.870;12.542;2023-11-21T08:52:44;9.40;1.00
1476;DHT22;730;48.870;12.542;2023-11-21T08:55:11;9.40;1.00
1476;DHT22;730;48.870;12.542;2023-11-21T08:57:42;9.50;1.00
1476;DHT22;730;48.870;12.542;2023-11-21T09:00:09;9.50;1.00
1476;DHT22;730;48.870;12.542;2023-11-21T09:02:41;9.60;1.00
1476;DHT22;730;48.870;12.542;2023-11-21T09:05:08;9.60;1.00
1476;DHT22;730;48.870;12.542;2023-11-21T09:07:35;9.70;1.00
1476;DHT22;730;48.870;12.542;2023-11-21T09:10:03;9.70;1.00
1476;DHT22;730;48.870;12.542;2023-11-21T09:12:29;9.80;1.00
1476;DHT22;730;48.870;12.542;2023-11-21T09:14:55;9.90;1.00
1476;DHT22;730;48.870;12.542;2023-11-21T09:17:21;9.90;1.00
1476;DHT22;730;48.870;12.542;2023-11-21T09:19:47;10.00;1.00
1476;DHT22;730;48.870;12.542;2023-11-21T09:22:17;10.00;1.00
1476;DHT22;730;48.870;12.542;2023-11-21T09:24:43;10.10;1.00
1476;DHT22;730;48.870;12.542;2023-11-21T09:27:10;10.10;1.00
1476;DHT22;730;48.870;12.542;2023-11-21T09:29:37;10.10;1.00
1476;DHT22;730;48.870;12.542;2023-11-21T09:32:08;10.10;1.00
1476;DHT22;730;48.870;12.542;2023-11-21T09:34:34;10.20;1.00
1476;DHT22;730;48.870;12.542;2023-11-21T09:37:04;10.20;1.00
1476;DHT22;730;48.870;12.542;2023-11-21T09:39:32;10.30;1.00
1476;DHT22;730;48.870;12.542;2023-11-21T09:42:15;10.30;1.00
1476;DHT22;730;48.870;12.542;2023-11-21T09:44:48;10.30;1.00
1476;DHT22;730;48.870;12.542;2023-11-21T09:47:17;10.30;1.00
1476;DHT22;730;48.870;12.542;2023-11-21T09:49:48;10.40;1.00
1476;DHT22;730;48.870;12.542;2023-11-21T09:52:24;10.40;1.00
1476;DHT22;730;48.870;12.542;2023-11-21T09:54:52;10.40;1.00
1476;DHT22;730;48.870;12.542;2023-11-21T09:57:23;10.40;1.00
1476;DHT22;730;48.870;12.542;2023-11-21T09:59:53;10.50;1.00
1476;DHT22;730;48.870;12.542;2023-11-21T10:02:25;10.50;1.00
1476;DHT22;730;48.870;12.542;2023-11-21T10:04:55;10.60;1.00
1476;DHT22;730;48.870;12.542;2023-11-21T10:07:22;10.60;1.00
1476;DHT22;730;48.870;12.542;2023-11-21T10:09:51;10.70;1.00
1476;DHT22;730;48.870;12.542;2023-11-21T10:12:17;10.70;1.00
1476;DHT22;730;48.870;12.542;2023-11-21T10:14:48;10.80;1.00
1476;DHT22;730;48.870;12.542;2023-11-21T10:17:17;10.80;1.00
1476;DHT22;730;48.870;12.542;2023-11-21T10:19:47;10.80;1.00
1476;DHT22;730;48.870;12.542;2023-11-21T10:22:15;10.90;1.00
1476;DHT22;730;48.870;12.542;2023-11-21T10:24:41;10.90;1.00
1476;DHT22;730;48.870;12.542;2023-11-21T10:27:09;10.90;1.00
1476;DHT22;730;48.870;12.542;2023-11-21T10:29:35;11.00;1.00
1476;DHT22;730;48.870;12.542;2023-11-21T10:32:04;11.10;1.00
1476;DHT22;730;48.870;12.542;2023-11-21T10:34:31;11.10;1.00
1476;DHT22;730;48.870;12.542;2023-11-21T10:36:57;11.10;1.00
1476;DHT22;730;48.870;12.542;2023-11-21T10:39:24;11.20;1.00
1476;DHT22;730;48.870;12.542;2023-11-21T10:41:55;11.20;1.00
1476;DHT22;730;48.870;12.542;2023-11-21T10:44:21;11.20;1.00
1476;DHT22;730;48.870;12.542;2023-11-21T10:46:53;11.30;1.00
1476;DHT22;730;48.870;12.542;2023-11-21T10:49:27;11.30;1.00
1476;DHT22;730;48.870;12.542;2023-11-21T10:51:54;11.30;1.00
1476;DHT22;730;48.870;12.542;2023-11-21T10:54:21;11.40;1.00
1476;DHT22;730;48.870;12.542;2023-11-21T10:56:49;11.30;1.00
1476;DHT22;730;48.870;12.542;2023-11-21T10:59:17;11.30;1.00
1476;DHT22;730;48.870;12.542;2023-11-21T11:01:47;11.30;1.00
1476;DHT22;730;48.870;12.542;2023-11-21T11:04:18;11.30;1.00
1476;DHT22;730;48.870;12.542;2023-11-21T11:06:50;11.30;1.00
1476;DHT22;730;48.870;12.542;2023-11-21T11:09:17;11.30;1.00
1476;DHT22;730;48.870;12.542;2023-11-21T11:11:46;11.30;1.00
1476;DHT22;730;48.870;12.542;2023-11-21T11:14:14;11.30;1.00
1476;DHT22;730;48.870;12.542;2023-11-21T11:16:41;11.40;1.00
1476;DHT22;730;48.870;12.542;2023-11-21T11:19:07;11.40;1.00
1476;DHT22;730;48.870;12.542;2023-11-21T11:21:45;11.50;1.00
1476;DHT22;730;48.870;12.542;2023-11-21T11:35:10;11.70;1.00
1476;DHT22;730;48.870;12.542;2023-11-21T11:37:40;11.80;1.00
1476;DHT22;730;48.870;12.542;2023-11-21T11:40:07;11.90;1.00
1476;DHT22;730;48.870;12.542;2023-11-21T11:42:33;11.90;1.00
1476;DHT22;730;48.870;12.542;2023-11-21T11:44:59;12.00;1.00
1476;DHT22;730;48.870;12.542;2023-11-21T11:47:29;12.00;1.00
1476;DHT22;730;48.870;12.542;2023-11-21T11:52:47;12.10;1.00
1476;DHT22;730;48.870;12.542;2023-11-21T11:55:17;12.20;1.00
1476;DHT22;730;48.870;12.542;2023-11-21T11:57:46;12.20;1.00
1476;DHT22;730;48.870;12.542;2023-11-21T12:02:52;12.20;1.00
1476;DHT22;730;48.870;12.542;2023-11-21T12:05:20;12.10;1.00
1476;DHT22;730;48.870;12.542;2023-11-21T12:07:48;12.10;1.00
1476;DHT22;730;48.870;12.542;2023-11-21T12:10:16;12.10;1.00
1476;DHT22;730;48.870;12.542;2023-11-21T12:12:50;12.10;1.00
1476;DHT22;730;48.870;12.542;2023-11-21T12:15:19;12.20;1.00
1476;DHT22;730;48.870;12.542;2023-11-21T12:17:46;12.20;1.00
1476;DHT22;730;48.870;12.542;2023-11-21T12:20:13;12.20;1.00
1476;DHT22;730;48.870;12.542;2023-11-21T12:22:47;12.20;1.00
1476;DHT22;730;48.870;12.542;2023-11-21T12:25:17;12.20;1.00
1476;DHT22;730;48.870;12.542;2023-11-21T12:27:49;12.20;1.00
1476;DHT22;730;48.870;12.542;2023-11-21T12:30:17;12.20;1.00
1476;DHT22;730;48.870;12.542;2023-11-21T12:32:44;12.20;1.00
1476;DHT22;730;48.870;12.542;2023-11-21T12:35:12;12.20;1.00
1476;DHT22;730;48.870;12.542;2023-11-21T12:37:40;12.20;1.00
1476;DHT22;730;48.870;12.542;2023-11-21T12:40:07;12.20;1.00
1476;DHT22;730;48.870;12.542;2023-11-21T12:42:34;12.30;1.00
1476;DHT22;730;48.870;12.542;2023-11-21T12:45:30;12.30;1.00
1476;DHT22;730;48.870;12.542;2023-11-21T12:48:05;12.30;1.00
1476;DHT22;730;48.870;12.542;2023-11-21T12:50:35;12.40;1.00
1476;DHT22;730;48.870;12.542;2023-11-21T12:53:05;12.40;1.00
1476;DHT22;730;48.870;12.542;2023-11-21T12:55:32;12.40;1.00
1476;DHT22;730;48.870;12.542;2023-11-21T12:58:02;12.40;1.00
1476;DHT22;730;48.870;12.542;2023-11-21T13:00:37;12.40;1.00
1476;DHT22;730;48.870;12.542;2023-11-21T13:03:09;12.40;1.00
1476;DHT22;730;48.870;12.542;2023-11-21T13:05:40;12.40;1.00
1476;DHT22;730;48.870;12.542;2023-11-21T13:08:11;12.30;1.00
1476;DHT22;730;48.870;12.542;2023-11-21T13:10:43;12.30;1.00
1476;DHT22;730;48.870;12.542;2023-11-21T13:13:13;12.30;1.00
1476;DHT22;730;48.870;12.542;2023-11-21T13:15:49;12.30;1.00
1476;DHT22;730;48.870;12.542;2023-11-21T13:18:16;12.20;1.00
1476;DHT22;730;48.870;12.542;2023-11-21T13:20:43;12.20;1.00
1476;DHT22;730;48.870;12.542;2023-11-21T13:23:10;12.20;1.00
1476;DHT22;730;48.870;12.542;2023-11-21T13:25:42;12.10;1.00
1476;DHT22;730;48.870;12.542;2023-11-21T13:28:11;12.10;1.00
1476;DHT22;730;48.870;12.542;2023-11-21T13:30:38;12.10;1.00
1476;DHT22;730;48.870;12.542;2023-11-21T13:33:07;12.00;1.00
1476;DHT22;730;48.870;12.542;2023-11-21T13:35:34;12.00;1.00
1476;DHT22;730;48.870;12.542;2023-11-21T13:38:07;12.00;1.00
1476;DHT22;730;48.870;12.542;2023-11-21T13:40:36;11.90;1.00
1476;DHT22;730;48.870;12.542;2023-11-21T13:43:09;11.80;1.00
1476;DHT22;730;48.870;12.542;2023-11-21T13:45:45;11.80;1.00
1476;DHT22;730;48.870;12.542;2023-11-21T13:48:12;11.80;1.00
1476;DHT22;730;48.870;12.542;2023-11-21T13:50:48;11.70;1.00
1476;DHT22;730;48.870;12.542;2023-11-21T13:53:32;11.70;1.00
1476;DHT22;730;48.870;12.542;2023-11-21T13:56:02;11.60;1.00
1476;DHT22;730;48.870;12.542;2023-11-21T13:58:28;11.60;1.00
1476;DHT22;730;48.870;12.542;2023-11-21T14:01:20;11.60;1.00
1476;DHT22;730;48.870;12.542;2023-11-21T14:04:00;11.50;1.00
1476;DHT22;730;48.870;12.542;2023-11-21T14:06:49;11.50;1.00
1476;DHT22;730;48.870;12.542;2023-11-21T14:09:21;11.50;1.00
1476;DHT22;730;48.870;12.542;2023-11-21T14:12:01;11.50;1.00
1476;DHT22;730;48.870;12.542;2023-11-21T14:14:32;11.50;1.00
1476;DHT22;730;48.870;12.542;2023-11-21T14:16:58;11.50;1.00
1476;DHT22;730;48.870;12.542;2023-11-21T14:19:32;11.40;1.00
1476;DHT22;730;48.870;12.542;2023-11-21T14:21:59;11.40;1.00
1476;DHT22;730;48.870;12.542;2023-11-21T14:24:25;11.40;1.00
1476;DHT22;730;48.870;12.542;2023-11-21T14:26:51;11.40;1.00
1476;DHT22;730;48.870;12.542;2023-11-21T14:29:19;11.40;1.00
1476;DHT22;730;48.870;12.542;2023-11-21T14:31:49;11.40;1.00
1476;DHT22;730;48.870;12.542;2023-11-21T14:34:18;11.40;1.00
1476;DHT22;730;48.870;12.542;2023-11-21T14:36:44;11.30;1.00
1476;DHT22;730;48.870;12.542;2023-11-21T14:39:11;11.40;1.00
1476;DHT22;730;48.870;12.542;2023-11-21T14:41:52;11.30;1.00
1476;DHT22;730;48.870;12.542;2023-11-21T14:44:20;11.30;1.00
1476;DHT22;730;48.870;12.542;2023-11-21T14:46:49;11.30;1.00
1476;DHT22;730;48.870;12.542;2023-11-21T14:49:16;11.30;1.00
1476;DHT22;730;48.870;12.542;2023-11-21T14:51:55;11.30;1.00
1476;DHT22;730;48.870;12.542;2023-11-21T14:54:30;11.30;1.00
1476;DHT22;730;48.870;12.542;2023-11-21T14:57:09;11.30;1.00
1476;DHT22;730;48.870;12.542;2023-11-21T14:59:42;11.30;1.00
1476;DHT22;730;48.870;12.542;2023-11-21T15:02:08;11.20;1.00
1476;DHT22;730;48.870;12.542;2023-11-21T15:04:44;11.20;1.00
1476;DHT22;730;48.870;12.542;2023-11-21T15:07:10;11.20;1.00
1476;DHT22;730;48.870;12.542;2023-11-21T15:09:37;11.10;1.00
1476;DHT22;730;48.870;12.542;2023-11-21T15:12:11;11.10;1.00
1476;DHT22;730;48.870;12.542;2023-11-21T15:14:41;11.00;1.00
1476;DHT22;730;48.870;12.542;2023-11-21T15:17:09;11.00;1.00
1476;DHT22;730;48.870;12.542;2023-11-21T15:19:35;10.90;1.00
1476;DHT22;730;48.870;12.542;2023-11-21T15:22:02;10.90;1.00
1476;DHT22;730;48.870;12.542;2023-11-21T15:24:28;10.90;1.00
1476;DHT22;730;48.870;12.542;2023-11-21T15:26:54;10.90;1.00
1476;DHT22;730;48.870;12.542;2023-11-21T15:29:20;10.90;1.00
1476;DHT22;730;48.870;12.542;2023-11-21T15:31:47;10.90;1.00
1476;DHT22;730;48.870;12.542;2023-11-21T15:34:15;10.80;1.00
1476;DHT22;730;48.870;12.542;2023-11-21T15:36:41;10.80;1.00
1476;DHT22;730;48.870;12.542;2023-11-21T15:39:07;10.90;1.00
1476;DHT22;730;48.870;12.542;2023-11-21T15:41:39;10.80;1.00
1476;DHT22;730;48.870;12.542;2023-11-21T15:44:07;10.80;1.00
1476;DHT22;730;48.870;12.542;2023-11-21T15:46:35;10.80;1.00
1476;DHT22;730;48.870;12.542;2023-11-21T15:49:03;10.80;1.00
1476;DHT22;730;48.870;12.542;2023-11-21T15:51:43;10.80;1.00
1476;DHT22;730;48.870;12.542;2023-11-21T15:54:12;10.70;1.00
1476;DHT22;730;48.870;12.542;2023-11-21T15:56:39;10.70;1.00
1476;DHT22;730;48.870;12.542;2023-11-21T15:59:05;10.70;1.00
1476;DHT22;730;48.870;12.542;2023-11-21T16:01:31;10.60;1.00
1476;DHT22;730;48.870;12.542;2023-11-21T16:03:57;10.50;1.00
1476;DHT22;730;48.870;12.542;2023-11-21T16:06:27;10.40;1.00
1476;DHT22;730;48.870;12.542;2023-11-21T16:08:53;10.40;1.00
1476;DHT22;730;48.870;12.542;2023-11-21T16:11:20;10.30;1.00
1476;DHT22;730;48.870;12.542;2023-11-21T16:13:46;10.30;1.00
1476;DHT22;730;48.870;12.542;2023-11-21T16:16:12;10.30;1.00
1476;DHT22;730;48.870;12.542;2023-11-21T16:18:38;10.30;1.00
1476;DHT22;730;48.870;12.542;2023-11-21T16:21:04;10.30;1.00
1476;DHT22;730;48.870;12.542;2023-11-21T16:23:30;10.30;1.00
1476;DHT22;730;48.870;12.542;2023-11-21T16:25:57;10.30;1.00
1476;DHT22;730;48.870;12.542;2023-11-21T16:28:23;10.30;1.00
1476;DHT22;730;48.870;12.542;2023-11-21T16:30:50;10.30;1.00
1476;DHT22;730;48.870;12.542;2023-11-21T16:33:16;10.30;1.00
1476;DHT22;730;48.870;12.542;2023-11-21T16:35:42;10.30;1.00
1476;DHT22;730;48.870;12.542;2023-11-21T16:38:09;10.20;1.00
1476;DHT22;730;48.870;12.542;2023-11-21T16:40:35;10.20;1.00
1476;DHT22;730;48.870;12.542;2023-11-21T16:43:01;10.10;1.00
1476;DHT22;730;48.870;12.542;2023-11-21T16:45:28;10.20;1.00
1476;DHT22;730;48.870;12.542;2023-11-21T16:47:54;10.10;1.00